createdAt,value
2019-01-24T00:04:38.751Z,93.23
2019-01-24T00:09:41.226Z,106.67
2019-01-24T00:14:43.696Z,85.30
2019-01-24T00:19:46.221Z,94.37
2019-01-24T00:24:48.641Z,91.97
2019-01-24T00:29:51.105Z,93.67
2019-01-24T00:34:53.560Z,97.50
2019-01-24T00:39:56.014Z,90.03
2019-01-24T00:44:58.467Z,88.53
2019-01-24T00:50:00.921Z,85.63
2019-01-24T00:55:03.386Z,88.33
2019-01-24T01:00:05.856Z,88.63
2019-01-24T01:05:08.316Z,91.03
2019-01-24T01:10:10.779Z,84.10
2019-01-24T01:15:13.225Z,87.83
2019-01-24T01:20:15.698Z,92.07
2019-01-24T01:25:18.146Z,88.30
2019-01-24T01:30:20.628Z,91.30
2019-01-24T01:35:23.078Z,85.90
2019-01-24T01:40:25.531Z,84.87
2019-01-24T01:45:28.072Z,79.20
2019-01-24T01:50:30.527Z,82.50
2019-01-24T01:55:32.994Z,87.57
2019-01-24T02:00:35.445Z,80.53
2019-01-24T02:05:37.904Z,82.20
2019-01-24T02:10:40.353Z,84.07
2019-01-24T02:15:42.808Z,81.53
2019-01-24T02:20:45.266Z,75.03
2019-01-24T02:25:47.717Z,77.27
2019-01-24T02:30:50.168Z,78.37
2019-01-24T02:35:52.631Z,83.23
2019-01-24T02:40:55.080Z,82.07
2019-01-24T02:45:57.534Z,79.60
2019-01-24T02:50:59.989Z,77.07
2019-01-24T02:56:02.444Z,81.60
2019-01-24T03:01:04.890Z,80.40
2019-01-24T03:06:07.352Z,90.60
2019-01-24T03:11:09.832Z,92.70
2019-01-24T03:16:12.293Z,83.73
2019-01-24T03:21:14.785Z,86.20
2019-01-24T03:26:17.258Z,84.30
2019-01-24T03:31:19.724Z,86.50
2019-01-24T03:36:22.185Z,85.73
2019-01-24T03:41:24.641Z,85.13
2019-01-24T03:46:27.106Z,81.27
2019-01-24T03:51:29.568Z,79.97
2019-01-24T03:56:32.021Z,83.33
2019-01-24T04:01:34.500Z,88.27
2019-01-24T04:06:36.955Z,83.37
2019-01-24T04:11:39.414Z,90.20
2019-01-24T04:16:41.850Z,91.90
2019-01-24T04:21:44.321Z,90.23
2019-01-24T04:26:46.795Z,83.23
2019-01-24T04:31:49.249Z,86.63
2019-01-24T04:36:53.447Z,88.90
2019-01-24T04:41:54.163Z,88.87
2019-01-24T04:46:56.780Z,84.07
2019-01-24T04:51:59.229Z,90.60
2019-01-24T04:57:01.709Z,85.27
2019-01-24T05:02:04.159Z,88.93
2019-01-24T05:07:06.609Z,95.57
2019-01-24T05:12:09.072Z,87.30
2019-01-24T05:17:11.541Z,89.23
2019-01-24T05:22:14.123Z,85.33
2019-01-24T05:27:16.574Z,91.53
2019-01-24T05:32:19.035Z,90.07
2019-01-24T05:37:21.495Z,99.70
2019-01-24T05:42:23.960Z,103.57
2019-01-24T05:47:26.428Z,94.90
2019-01-24T05:52:28.898Z,89.37
2019-01-24T05:57:31.355Z,97.10
2019-01-24T06:02:33.818Z,93.17
2019-01-24T06:07:36.283Z,100.63
2019-01-24T06:12:38.729Z,90.53
2019-01-24T06:17:41.206Z,95.63
2019-01-24T06:22:43.669Z,92.83
2019-01-24T06:27:46.121Z,103.30
2019-01-24T06:32:48.590Z,104.63
2019-01-24T06:37:51.084Z,100.47
2019-01-24T06:42:53.566Z,108.27
2019-01-24T06:47:56.021Z,95.97
2019-01-24T06:52:58.479Z,108.03
2019-01-24T06:58:00.992Z,104.57
2019-01-24T07:03:03.448Z,99.77
2019-01-24T07:08:05.922Z,105.53
2019-01-24T07:13:08.388Z,97.37
2019-01-24T07:18:10.860Z,92.83
2019-01-24T07:23:13.442Z,95.43
2019-01-24T07:28:15.887Z,83.67
2019-01-24T07:33:18.481Z,93.80
2019-01-24T07:38:20.950Z,90.50
2019-01-24T07:43:23.399Z,91.67
2019-01-24T07:48:25.850Z,87.07
2019-01-24T07:53:28.300Z,88.27
2019-01-24T07:58:30.757Z,85.27
2019-01-24T08:03:33.200Z,97.90
2019-01-24T08:08:35.678Z,87.80
2019-01-24T08:13:38.136Z,88.17
2019-01-24T08:18:40.593Z,93.67
2019-01-24T08:23:43.057Z,84.07
2019-01-24T08:28:45.507Z,94.33
2019-01-24T08:33:47.968Z,90.97
2019-01-24T08:38:50.421Z,92.10
2019-01-24T08:43:52.877Z,98.87
2019-01-24T08:48:55.342Z,92.13
2019-01-24T08:53:57.807Z,91.47
2019-01-24T08:59:00.280Z,94.20
2019-01-24T09:04:02.757Z,90.70
2019-01-24T09:09:05.222Z,92.93
2019-01-24T09:14:07.806Z,99.97
2019-01-24T09:19:10.250Z,98.63
2019-01-24T09:24:12.711Z,91.00
2019-01-24T09:29:15.177Z,98.47
2019-01-24T09:34:17.634Z,89.90
2019-01-24T09:39:20.119Z,91.60
2019-01-24T09:44:22.557Z,92.13
2019-01-24T09:49:25.025Z,96.43
2019-01-24T09:54:27.455Z,96.03
2019-01-24T09:59:29.917Z,96.60
2019-01-24T10:04:32.380Z,97.57
2019-01-24T10:09:34.832Z,91.63
2019-01-24T10:14:37.293Z,93.53
2019-01-24T10:19:39.753Z,95.93
2019-01-24T10:24:42.214Z,98.13
2019-01-24T10:29:44.678Z,96.07
2019-01-24T10:34:47.136Z,93.00
2019-01-24T10:39:49.593Z,94.63
2019-01-24T10:44:52.059Z,98.03
2019-01-24T10:49:54.539Z,95.20
2019-01-24T10:54:57.148Z,100.43
2019-01-24T10:59:59.615Z,96.47
2019-01-24T11:05:02.096Z,97.70
2019-01-24T11:10:04.550Z,96.17
2019-01-24T11:15:09.864Z,95.37
2019-01-24T11:20:12.263Z,97.63
2019-01-24T11:25:14.730Z,100.37
2019-01-24T11:30:25.969Z,104.57
2019-01-24T11:35:31.145Z,104.60
2019-01-24T11:40:33.615Z,103.97
2019-01-24T11:45:36.082Z,104.20
2019-01-24T11:50:38.551Z,99.57
2019-01-24T11:55:41.049Z,107.93
2019-01-24T12:00:43.516Z,105.37
2019-01-24T12:05:45.979Z,104.10
2019-01-24T12:10:48.432Z,106.60
2019-01-24T12:15:50.910Z,104.80
2019-01-24T12:20:53.365Z,98.97
2019-01-24T12:25:55.855Z,104.37
2019-01-24T12:30:58.331Z,92.03
2019-01-24T12:36:00.795Z,96.07
2019-01-24T12:41:03.262Z,93.10
2019-01-24T12:46:05.716Z,104.40
2019-01-24T12:51:08.180Z,105.13
2019-01-24T12:56:10.684Z,101.13
2019-01-24T13:01:13.152Z,106.80
2019-01-24T13:06:15.667Z,104.67
2019-01-24T13:11:18.146Z,105.03
2019-01-24T13:16:20.629Z,97.37
2019-01-24T13:21:23.103Z,113.93
2019-01-24T13:26:25.592Z,110.20
2019-01-24T13:31:28.069Z,105.27
2019-01-24T13:36:30.565Z,106.90
2019-01-24T13:41:33.039Z,112.60
2019-01-24T13:46:35.521Z,106.13
2019-01-24T13:51:37.980Z,103.33
2019-01-24T13:56:40.466Z,111.07
2019-01-24T14:01:42.955Z,103.20
2019-01-24T14:06:45.430Z,103.23
2019-01-24T14:11:47.935Z,114.27
2019-01-24T14:16:50.426Z,107.97
2019-01-24T14:21:52.892Z,102.10
2019-01-24T14:26:55.368Z,106.60
2019-01-24T14:31:57.959Z,100.97
2019-01-24T14:37:01.000Z,113.83
2019-01-24T14:42:03.468Z,115.77
2019-01-24T14:47:05.928Z,118.77
2019-01-24T14:52:08.436Z,113.83
2019-01-24T14:57:10.926Z,120.13
2019-01-24T15:02:13.413Z,111.40
2019-01-24T15:07:15.890Z,107.97
2019-01-24T15:12:18.363Z,111.70
2019-01-24T15:17:20.838Z,112.53
2019-01-24T15:22:23.340Z,110.03
2019-01-24T15:27:25.789Z,105.53
2019-01-24T15:32:28.278Z,109.80
2019-01-24T15:37:30.747Z,110.83
2019-01-24T15:42:33.237Z,105.00
2019-01-24T15:47:35.723Z,111.00
2019-01-24T15:52:38.213Z,109.47
2019-01-24T15:57:40.689Z,115.33
2019-01-24T16:02:43.159Z,107.50
2019-01-24T16:07:45.661Z,109.70
2019-01-24T16:12:48.124Z,102.63
2019-01-24T16:17:50.587Z,120.77
2019-01-24T16:22:53.093Z,112.23
2019-01-24T16:27:55.613Z,114.90
2019-01-24T16:32:58.047Z,106.30
2019-01-24T16:38:00.525Z,112.33
2019-01-24T16:43:02.990Z,109.07
2019-01-24T16:48:05.566Z,105.57
2019-01-24T16:53:08.039Z,105.27
2019-01-24T16:58:10.514Z,97.33
2019-01-24T17:03:12.987Z,109.07
2019-01-24T17:08:16.725Z,109.50
2019-01-24T17:13:17.948Z,106.07
2019-01-24T17:18:20.402Z,108.10
2019-01-24T17:23:22.888Z,111.53
2019-01-24T17:28:25.351Z,111.03
2019-01-24T17:33:27.847Z,111.67
2019-01-24T17:38:30.336Z,123.17
2019-01-24T17:43:32.803Z,115.13
2019-01-24T17:48:35.313Z,139.30
2019-01-24T17:53:37.796Z,124.33
2019-01-24T17:58:40.282Z,123.27
2019-01-24T18:03:42.753Z,142.47
2019-01-24T18:08:45.292Z,147.00
2019-01-24T18:13:47.788Z,118.77
2019-01-24T18:18:50.262Z,128.87
2019-01-24T18:23:52.750Z,124.10
2019-01-24T18:28:55.256Z,138.60
2019-01-24T18:33:57.734Z,148.47
2019-01-24T18:39:00.226Z,127.10
2019-01-24T18:44:02.707Z,134.80
2019-01-24T18:49:05.220Z,183.83
2019-01-24T18:54:07.697Z,139.10
2019-01-24T18:59:10.189Z,132.80
2019-01-24T19:04:12.675Z,137.43
2019-01-24T19:09:15.186Z,143.23
2019-01-24T19:14:17.665Z,139.07
2019-01-24T19:19:20.151Z,136.00
2019-01-24T19:24:22.687Z,135.30
2019-01-24T19:29:25.183Z,140.47
2019-01-24T19:34:27.818Z,142.80
2019-01-24T19:39:30.318Z,146.33
2019-01-24T19:44:32.850Z,142.93
2019-01-24T19:49:35.317Z,168.67
2019-01-24T19:54:38.375Z,146.17
2019-01-24T19:59:41.978Z,142.90
2019-01-24T20:04:44.509Z,141.80
2019-01-24T20:09:46.981Z,136.23
2019-01-24T20:14:49.468Z,137.10
2019-01-24T20:19:51.970Z,129.20
2019-01-24T20:24:54.458Z,162.77
2019-01-24T20:29:56.944Z,140.03
2019-01-24T20:34:59.432Z,131.40
2019-01-24T20:40:01.941Z,127.17
2019-01-24T20:45:04.436Z,154.70
2019-01-24T20:50:06.898Z,143.80
2019-01-24T20:55:12.307Z,134.40
2019-01-24T21:00:17.829Z,138.10
2019-01-24T21:05:20.310Z,134.33
2019-01-24T21:10:22.779Z,124.37
2019-01-24T21:15:25.271Z,121.97
2019-01-24T21:20:27.761Z,122.63
2019-01-24T21:25:30.247Z,129.63
2019-01-24T21:30:35.360Z,118.93
2019-01-24T21:35:37.821Z,131.63
2019-01-24T21:40:40.401Z,123.00
2019-01-24T21:45:42.864Z,138.97
2019-01-24T21:50:45.345Z,127.33
2019-01-24T21:55:47.883Z,128.97
2019-01-24T22:00:50.365Z,125.17
2019-01-24T22:05:52.863Z,119.27
2019-01-24T22:10:55.341Z,125.07
2019-01-24T22:15:58.166Z,116.03
2019-01-24T22:21:00.626Z,120.17
2019-01-24T22:26:03.102Z,115.23
2019-01-24T22:31:05.573Z,120.20
2019-01-24T22:36:08.046Z,114.80
2019-01-24T22:41:10.508Z,109.70
2019-01-24T22:46:12.969Z,124.10
2019-01-24T22:51:15.452Z,126.93
2019-01-24T22:56:17.938Z,126.90
2019-01-24T23:01:32.208Z,132.83
2019-01-24T23:06:34.709Z,118.13
2019-01-24T23:11:37.152Z,107.43
2019-01-24T23:16:39.632Z,109.50
2019-01-24T23:21:42.072Z,107.93
2019-01-24T23:26:44.558Z,96.80
2019-01-24T23:31:46.991Z,96.60
2019-01-24T23:36:49.452Z,85.20
2019-01-24T23:41:51.893Z,84.13
2019-01-24T23:46:54.351Z,78.93
2019-01-24T23:51:56.965Z,80.63
2019-01-24T23:56:59.421Z,80.53
